Pagrindinis puslapis
METAR-TAF:

METAR-TAF

Oro uostai :

Vientianas, Laosas

platuma: 17-57N, ilguma: 102-34E, Aukštis: 171 m

Dabartinis oras

Ataskaita buvo paskelbta 4 valandos ir 46 minutes, ne 16:00 UTC
Ramus vėjas
Temperatūra 12°C
Drėgmė 100%
Slėgis 1018 hPa
Matomumas: 3000 m
rūkana

METAR: VLVT 091600Z 00000KT 3000 BR NSC 12/12 Q1018 NOSIG

Laikas: 03:46 (20:46 UTC)

Prognozė

Ataskaita buvo paskelbta 3 valandos ir 46 minutes, ne 17:00 UTC
Prognozė galioja nuo 09 metu 18 UTC su 10 metu 18 UTC
Vėjas 4 kt iš Šiaurės Vakarų
Matomumas: 5000 m
Mažai debesys ne aukštis 5000 ft
rūkana

TAF: VLVT 091700Z 0918/1018 32004KT 5000 BR FEW050

Orai ataskaitas ir orų prognozės (METAR, TAF).

turimą stotys yra geltonos ir raudonos taškus žemėlapyje.

Perkelti pele per norėdami pamatyti stoties vardą.

Tada spustelėkite, norėdami matyti oro stebėjimo ir prognozės.

Norėdami pakeisti žemėlapį: spustelėkite ant žalios mygtukų su juodo kryžiaus žemyn,; žalią mygtuką su brūkšneliu, jei norite nutolinti; arba žalių rodyklių gretimoms žemėlapius.


METAR-TAF: